West Carrollton, Ohio
Current Conditions -  °F | °C
As of 12:53 PM on Saturday 22 Nov 2014 (Local Time) from KMGY Reporting Station
Broken Clouds Broken Clouds  
Wind Chill:   Ceiling: 5000
Heat Index:   Visibility: 10mi
Dew Point:   Wind: 12mph
Humidity: 64%   Direction: 200°SSW
Pressure: 30.16"   Gusts: NA
Location:  39.664°N, 84.2415°W
Report Text: KMGY 221753Z AUTO 20010KT 10SM BKN050 09/03 A3016 RMK AO2 SLP218 60001 I6001 T00940028 10094 20011 58028
Loading
Personal Weather Stations






























Interactive Weather Map New forecast layout! Learn more

10-Day Weather Forecast

Advertisements
Track Severe Weather on mobile